sensor_id;sensor_type;location;lat;lon;timestamp;P1;durP1;ratioP1;P2;durP2;ratioP2
16308;SDS011;8263;48.880;9.276;2022-10-16T00:01:03;27.40;;;25.70;;
16308;SDS011;8263;48.880;9.276;2022-10-16T00:03:30;26.55;;;24.95;;
16308;SDS011;8263;48.880;9.276;2022-10-16T00:05:59;26.33;;;24.63;;
16308;SDS011;8263;48.880;9.276;2022-10-16T00:08:27;28.35;;;26.55;;
16308;SDS011;8263;48.880;9.276;2022-10-16T00:10:58;27.63;;;25.92;;
16308;SDS011;8263;48.880;9.276;2022-10-16T00:13:24;28.15;;;26.45;;
16308;SDS011;8263;48.880;9.276;2022-10-16T00:15:54;27.17;;;25.48;;
16308;SDS011;8263;48.880;9.276;2022-10-16T00:18:20;29.67;;;27.88;;
16308;SDS011;8263;48.880;9.276;2022-10-16T00:20:47;27.75;;;26.05;;
16308;SDS011;8263;48.880;9.276;2022-10-16T00:23:15;28.33;;;26.60;;
16308;SDS011;8263;48.880;9.276;2022-10-16T00:25:41;27.88;;;26.17;;
16308;SDS011;8263;48.880;9.276;2022-10-16T00:28:08;28.73;;;26.98;;
16308;SDS011;8263;48.880;9.276;2022-10-16T00:30:37;27.67;;;25.98;;
16308;SDS011;8263;48.880;9.276;2022-10-16T00:33:03;27.23;;;25.52;;
16308;SDS011;8263;48.880;9.276;2022-10-16T00:35:30;28.60;;;26.90;;
16308;SDS011;8263;48.880;9.276;2022-10-16T00:37:57;27.30;;;25.60;;
16308;SDS011;8263;48.880;9.276;2022-10-16T00:40:25;28.85;;;26.95;;
16308;SDS011;8263;48.880;9.276;2022-10-16T00:42:53;26.95;;;25.35;;
16308;SDS011;8263;48.880;9.276;2022-10-16T00:45:22;27.73;;;25.95;;
16308;SDS011;8263;48.880;9.276;2022-10-16T00:47:48;28.15;;;26.45;;
16308;SDS011;8263;48.880;9.276;2022-10-16T00:50:16;28.85;;;26.95;;
16308;SDS011;8263;48.880;9.276;2022-10-16T00:52:46;27.90;;;26.20;;
16308;SDS011;8263;48.880;9.276;2022-10-16T00:55:12;29.88;;;28.00;;
16308;SDS011;8263;48.880;9.276;2022-10-16T00:57:41;30.33;;;28.08;;
16308;SDS011;8263;48.880;9.276;2022-10-16T01:00:09;28.35;;;26.65;;
16308;SDS011;8263;48.880;9.276;2022-10-16T01:02:36;28.30;;;26.58;;
16308;SDS011;8263;48.880;9.276;2022-10-16T01:05:03;29.45;;;27.15;;
16308;SDS011;8263;48.880;9.276;2022-10-16T01:07:32;28.27;;;26.58;;
16308;SDS011;8263;48.880;9.276;2022-10-16T01:10:07;28.92;;;27.10;;
16308;SDS011;8263;48.880;9.276;2022-10-16T01:12:51;27.67;;;25.98;;
16308;SDS011;8263;48.880;9.276;2022-10-16T01:15:21;29.73;;;27.83;;
16308;SDS011;8263;48.880;9.276;2022-10-16T01:17:51;29.13;;;27.33;;
16308;SDS011;8263;48.880;9.276;2022-10-16T01:20:23;29.67;;;27.88;;
16308;SDS011;8263;48.880;9.276;2022-10-16T01:22:56;28.15;;;26.40;;
16308;SDS011;8263;48.880;9.276;2022-10-16T01:25:29;29.73;;;27.92;;
16308;SDS011;8263;48.880;9.276;2022-10-16T01:27:58;30.77;;;28.88;;
16308;SDS011;8263;48.880;9.276;2022-10-16T01:30:26;29.70;;;27.80;;
16308;SDS011;8263;48.880;9.276;2022-10-16T01:32:55;30.30;;;28.42;;
16308;SDS011;8263;48.880;9.276;2022-10-16T01:35:25;27.98;;;26.27;;
16308;SDS011;8263;48.880;9.276;2022-10-16T01:37:53;28.38;;;26.60;;
16308;SDS011;8263;48.880;9.276;2022-10-16T01:40:20;29.45;;;27.63;;
16308;SDS011;8263;48.880;9.276;2022-10-16T01:42:50;30.42;;;28.52;;
16308;SDS011;8263;48.880;9.276;2022-10-16T01:45:20;29.83;;;27.92;;
16308;SDS011;8263;48.880;9.276;2022-10-16T01:47:48;28.40;;;26.70;;
16308;SDS011;8263;48.880;9.276;2022-10-16T01:50:16;29.70;;;27.90;;
16308;SDS011;8263;48.880;9.276;2022-10-16T01:52:45;30.83;;;28.92;;
16308;SDS011;8263;48.880;9.276;2022-10-16T01:55:16;29.30;;;27.40;;
16308;SDS011;8263;48.880;9.276;2022-10-16T01:57:44;29.00;;;27.25;;
16308;SDS011;8263;48.880;9.276;2022-10-16T02:00:12;28.20;;;26.50;;
16308;SDS011;8263;48.880;9.276;2022-10-16T02:02:41;29.00;;;27.20;;
16308;SDS011;8263;48.880;9.276;2022-10-16T02:05:10;29.40;;;27.60;;
16308;SDS011;8263;48.880;9.276;2022-10-16T02:07:38;29.45;;;27.65;;
16308;SDS011;8263;48.880;9.276;2022-10-16T02:10:06;29.08;;;27.27;;
16308;SDS011;8263;48.880;9.276;2022-10-16T02:12:33;29.02;;;27.23;;
16308;SDS011;8263;48.880;9.276;2022-10-16T02:15:00;30.55;;;28.17;;
16308;SDS011;8263;48.880;9.276;2022-10-16T02:17:27;29.77;;;27.90;;
16308;SDS011;8263;48.880;9.276;2022-10-16T02:19:56;29.55;;;27.75;;
16308;SDS011;8263;48.880;9.276;2022-10-16T02:22:24;29.55;;;27.73;;
16308;SDS011;8263;48.880;9.276;2022-10-16T02:27:28;28.63;;;26.92;;
16308;SDS011;8263;48.880;9.276;2022-10-16T02:29:57;29.80;;;28.00;;
16308;SDS011;8263;48.880;9.276;2022-10-16T02:32:28;30.02;;;28.23;;
16308;SDS011;8263;48.880;9.276;2022-10-16T02:34:58;28.60;;;26.85;;
16308;SDS011;8263;48.880;9.276;2022-10-16T02:37:25;31.92;;;29.92;;
16308;SDS011;8263;48.880;9.276;2022-10-16T02:39:51;31.35;;;29.33;;
16308;SDS011;8263;48.880;9.276;2022-10-16T02:42:19;30.42;;;28.55;;
16308;SDS011;8263;48.880;9.276;2022-10-16T02:44:45;29.15;;;27.35;;
16308;SDS011;8263;48.880;9.276;2022-10-16T02:47:12;29.83;;;28.02;;
16308;SDS011;8263;48.880;9.276;2022-10-16T02:49:38;29.90;;;28.10;;
16308;SDS011;8263;48.880;9.276;2022-10-16T02:52:06;28.70;;;26.90;;
16308;SDS011;8263;48.880;9.276;2022-10-16T02:54:33;30.17;;;28.35;;
16308;SDS011;8263;48.880;9.276;2022-10-16T02:56:59;30.48;;;28.58;;
16308;SDS011;8263;48.880;9.276;2022-10-16T02:59:26;28.98;;;27.17;;
16308;SDS011;8263;48.880;9.276;2022-10-16T03:01:52;28.77;;;26.98;;
16308;SDS011;8263;48.880;9.276;2022-10-16T03:04:19;30.83;;;28.92;;
16308;SDS011;8263;48.880;9.276;2022-10-16T03:06:46;28.40;;;26.63;;
16308;SDS011;8263;48.880;9.276;2022-10-16T03:09:13;29.67;;;27.88;;
16308;SDS011;8263;48.880;9.276;2022-10-16T03:11:40;29.52;;;27.73;;
16308;SDS011;8263;48.880;9.276;2022-10-16T03:14:07;29.77;;;27.98;;
16308;SDS011;8263;48.880;9.276;2022-10-16T03:16:33;30.23;;;28.33;;
16308;SDS011;8263;48.880;9.276;2022-10-16T03:19:00;28.90;;;27.10;;
16308;SDS011;8263;48.880;9.276;2022-10-16T03:21:28;29.92;;;28.08;;
16308;SDS011;8263;48.880;9.276;2022-10-16T03:23:54;30.20;;;28.35;;
16308;SDS011;8263;48.880;9.276;2022-10-16T03:26:23;30.88;;;28.98;;
16308;SDS011;8263;48.880;9.276;2022-10-16T03:28:49;30.83;;;28.92;;
16308;SDS011;8263;48.880;9.276;2022-10-16T03:31:15;32.08;;;30.13;;
16308;SDS011;8263;48.880;9.276;2022-10-16T03:33:42;28.77;;;26.98;;
16308;SDS011;8263;48.880;9.276;2022-10-16T03:36:08;29.90;;;28.10;;
16308;SDS011;8263;48.880;9.276;2022-10-16T03:38:35;31.00;;;29.10;;
16308;SDS011;8263;48.880;9.276;2022-10-16T03:41:02;29.92;;;28.13;;
16308;SDS011;8263;48.880;9.276;2022-10-16T03:43:30;30.38;;;28.50;;
16308;SDS011;8263;48.880;9.276;2022-10-16T03:45:56;29.85;;;28.02;;
16308;SDS011;8263;48.880;9.276;2022-10-16T03:48:23;27.98;;;26.27;;
16308;SDS011;8263;48.880;9.276;2022-10-16T03:50:49;29.83;;;27.92;;
16308;SDS011;8263;48.880;9.276;2022-10-16T03:53:16;30.17;;;28.30;;
16308;SDS011;8263;48.880;9.276;2022-10-16T03:55:43;30.85;;;28.95;;
16308;SDS011;8263;48.880;9.276;2022-10-16T03:58:10;30.88;;;28.98;;
16308;SDS011;8263;48.880;9.276;2022-10-16T04:00:41;29.92;;;28.13;;
16308;SDS011;8263;48.880;9.276;2022-10-16T04:03:07;29.88;;;28.08;;
16308;SDS011;8263;48.880;9.276;2022-10-16T04:05:34;30.80;;;28.83;;
16308;SDS011;8263;48.880;9.276;2022-10-16T04:08:00;30.63;;;28.73;;
16308;SDS011;8263;48.880;9.276;2022-10-16T04:10:27;29.42;;;27.63;;
16308;SDS011;8263;48.880;9.276;2022-10-16T04:12:54;29.02;;;27.23;;
16308;SDS011;8263;48.880;9.276;2022-10-16T04:15:20;30.30;;;28.42;;
16308;SDS011;8263;48.880;9.276;2022-10-16T04:17:48;31.98;;;29.88;;
16308;SDS011;8263;48.880;9.276;2022-10-16T04:20:15;31.83;;;29.83;;
16308;SDS011;8263;48.880;9.276;2022-10-16T04:22:41;30.52;;;28.67;;
16308;SDS011;8263;48.880;9.276;2022-10-16T04:25:08;30.60;;;28.70;;
16308;SDS011;8263;48.880;9.276;2022-10-16T04:27:36;30.25;;;28.35;;
16308;SDS011;8263;48.880;9.276;2022-10-16T04:30:02;29.65;;;27.85;;
16308;SDS011;8263;48.880;9.276;2022-10-16T04:32:29;29.27;;;27.48;;
16308;SDS011;8263;48.880;9.276;2022-10-16T04:34:57;31.90;;;29.90;;
16308;SDS011;8263;48.880;9.276;2022-10-16T04:37:24;29.67;;;27.88;;
16308;SDS011;8263;48.880;9.276;2022-10-16T04:39:51;30.42;;;28.55;;
16308;SDS011;8263;48.880;9.276;2022-10-16T04:42:20;29.42;;;27.63;;
16308;SDS011;8263;48.880;9.276;2022-10-16T04:44:47;29.65;;;27.85;;
16308;SDS011;8263;48.880;9.276;2022-10-16T04:47:13;30.23;;;28.35;;
16308;SDS011;8263;48.880;9.276;2022-10-16T04:49:40;30.48;;;28.55;;
16308;SDS011;8263;48.880;9.276;2022-10-16T04:52:08;31.10;;;29.20;;
16308;SDS011;8263;48.880;9.276;2022-10-16T04:54:34;31.25;;;29.17;;
16308;SDS011;8263;48.880;9.276;2022-10-16T04:57:01;31.75;;;29.75;;
16308;SDS011;8263;48.880;9.276;2022-10-16T04:59:28;30.25;;;28.35;;
16308;SDS011;8263;48.880;9.276;2022-10-16T05:01:54;30.65;;;28.75;;
16308;SDS011;8263;48.880;9.276;2022-10-16T05:04:21;30.67;;;28.77;;
16308;SDS011;8263;48.880;9.276;2022-10-16T05:06:47;32.28;;;30.27;;
16308;SDS011;8263;48.880;9.276;2022-10-16T05:09:16;31.17;;;29.27;;
16308;SDS011;8263;48.880;9.276;2022-10-16T05:11:42;30.92;;;29.02;;
16308;SDS011;8263;48.880;9.276;2022-10-16T05:14:09;30.95;;;28.95;;
16308;SDS011;8263;48.880;9.276;2022-10-16T05:16:35;31.23;;;29.25;;
16308;SDS011;8263;48.880;9.276;2022-10-16T05:19:02;31.52;;;29.63;;
16308;SDS011;8263;48.880;9.276;2022-10-16T05:21:28;31.65;;;29.65;;
16308;SDS011;8263;48.880;9.276;2022-10-16T05:23:55;32.15;;;30.15;;
16308;SDS011;8263;48.880;9.276;2022-10-16T05:26:22;31.58;;;29.65;;
16308;SDS011;8263;48.880;9.276;2022-10-16T05:28:49;31.90;;;29.95;;
16308;SDS011;8263;48.880;9.276;2022-10-16T05:31:16;31.95;;;29.98;;
16308;SDS011;8263;48.880;9.276;2022-10-16T05:33:42;31.63;;;29.63;;
16308;SDS011;8263;48.880;9.276;2022-10-16T05:36:09;30.85;;;28.95;;
16308;SDS011;8263;48.880;9.276;2022-10-16T05:38:36;31.70;;;29.73;;
16308;SDS011;8263;48.880;9.276;2022-10-16T05:41:03;31.00;;;29.02;;
16308;SDS011;8263;48.880;9.276;2022-10-16T05:43:32;32.35;;;30.35;;
16308;SDS011;8263;48.880;9.276;2022-10-16T05:45:59;32.78;;;30.77;;
16308;SDS011;8263;48.880;9.276;2022-10-16T05:48:26;31.45;;;29.55;;
16308;SDS011;8263;48.880;9.276;2022-10-16T05:50:58;32.33;;;30.33;;
16308;SDS011;8263;48.880;9.276;2022-10-16T05:53:26;31.95;;;29.98;;
16308;SDS011;8263;48.880;9.276;2022-10-16T05:55:53;31.45;;;29.55;;
16308;SDS011;8263;48.880;9.276;2022-10-16T05:58:20;31.25;;;29.35;;
16308;SDS011;8263;48.880;9.276;2022-10-16T06:00:53;31.83;;;29.83;;
16308;SDS011;8263;48.880;9.276;2022-10-16T06:03:20;30.90;;;29.00;;
16308;SDS011;8263;48.880;9.276;2022-10-16T06:05:47;32.25;;;30.25;;
16308;SDS011;8263;48.880;9.276;2022-10-16T06:08:13;32.10;;;30.10;;
16308;SDS011;8263;48.880;9.276;2022-10-16T06:10:40;31.08;;;29.17;;
16308;SDS011;8263;48.880;9.276;2022-10-16T06:13:07;32.78;;;30.77;;
16308;SDS011;8263;48.880;9.276;2022-10-16T06:15:33;30.55;;;28.65;;
16308;SDS011;8263;48.880;9.276;2022-10-16T06:18:01;34.33;;;32.13;;
16308;SDS011;8263;48.880;9.276;2022-10-16T06:20:28;31.92;;;29.92;;
16308;SDS011;8263;48.880;9.276;2022-10-16T06:22:54;30.60;;;28.70;;
16308;SDS011;8263;48.880;9.276;2022-10-16T06:25:21;31.45;;;29.55;;
16308;SDS011;8263;48.880;9.276;2022-10-16T06:27:48;31.70;;;29.75;;
16308;SDS011;8263;48.880;9.276;2022-10-16T06:30:15;31.95;;;29.85;;
16308;SDS011;8263;48.880;9.276;2022-10-16T06:32:41;33.90;;;31.80;;
16308;SDS011;8263;48.880;9.276;2022-10-16T06:35:09;33.05;;;31.05;;
16308;SDS011;8263;48.880;9.276;2022-10-16T06:37:36;33.05;;;31.05;;
16308;SDS011;8263;48.880;9.276;2022-10-16T06:40:03;31.25;;;29.35;;
16308;SDS011;8263;48.880;9.276;2022-10-16T06:42:30;30.17;;;28.27;;
16308;SDS011;8263;48.880;9.276;2022-10-16T06:44:57;32.75;;;30.75;;
16308;SDS011;8263;48.880;9.276;2022-10-16T06:47:23;31.45;;;29.45;;
16308;SDS011;8263;48.880;9.276;2022-10-16T06:49:50;32.65;;;30.55;;
16308;SDS011;8263;48.880;9.276;2022-10-16T06:52:18;32.65;;;30.63;;
16308;SDS011;8263;48.880;9.276;2022-10-16T06:54:45;33.67;;;31.58;;
16308;SDS011;8263;48.880;9.276;2022-10-16T06:57:11;35.67;;;32.67;;
16308;SDS011;8263;48.880;9.276;2022-10-16T06:59:38;35.53;;;32.33;;
16308;SDS011;8263;48.880;9.276;2022-10-16T07:02:04;31.33;;;29.23;;
16308;SDS011;8263;48.880;9.276;2022-10-16T07:04:32;34.38;;;31.98;;
16308;SDS011;8263;48.880;9.276;2022-10-16T07:06:59;32.00;;;29.83;;
16308;SDS011;8263;48.880;9.276;2022-10-16T07:09:27;34.80;;;32.60;;
16308;SDS011;8263;48.880;9.276;2022-10-16T07:11:54;32.22;;;30.23;;
16308;SDS011;8263;48.880;9.276;2022-10-16T07:14:20;32.25;;;30.02;;
16308;SDS011;8263;48.880;9.276;2022-10-16T07:16:47;32.83;;;30.73;;
16308;SDS011;8263;48.880;9.276;2022-10-16T07:19:14;32.45;;;30.45;;
16308;SDS011;8263;48.880;9.276;2022-10-16T07:21:42;32.65;;;30.65;;
16308;SDS011;8263;48.880;9.276;2022-10-16T07:24:11;33.20;;;31.10;;
16308;SDS011;8263;48.880;9.276;2022-10-16T07:26:40;32.35;;;30.35;;
16308;SDS011;8263;48.880;9.276;2022-10-16T07:29:07;32.28;;;30.25;;
16308;SDS011;8263;48.880;9.276;2022-10-16T07:31:37;32.60;;;30.50;;
16308;SDS011;8263;48.880;9.276;2022-10-16T07:34:04;31.35;;;29.35;;
16308;SDS011;8263;48.880;9.276;2022-10-16T07:36:31;30.73;;;28.73;;
16308;SDS011;8263;48.880;9.276;2022-10-16T07:38:58;31.75;;;29.77;;
16308;SDS011;8263;48.880;9.276;2022-10-16T07:41:25;32.20;;;30.23;;
16308;SDS011;8263;48.880;9.276;2022-10-16T07:43:53;31.45;;;29.42;;
16308;SDS011;8263;48.880;9.276;2022-10-16T07:46:20;31.35;;;29.35;;
16308;SDS011;8263;48.880;9.276;2022-10-16T07:48:47;31.08;;;29.17;;
16308;SDS011;8263;48.880;9.276;2022-10-16T07:51:14;32.53;;;30.52;;
16308;SDS011;8263;48.880;9.276;2022-10-16T07:53:41;31.95;;;29.95;;
16308;SDS011;8263;48.880;9.276;2022-10-16T07:56:08;31.63;;;29.70;;
16308;SDS011;8263;48.880;9.276;2022-10-16T07:58:35;30.80;;;28.90;;
16308;SDS011;8263;48.880;9.276;2022-10-16T08:01:04;30.77;;;28.88;;
16308;SDS011;8263;48.880;9.276;2022-10-16T08:03:32;30.98;;;29.08;;
16308;SDS011;8263;48.880;9.276;2022-10-16T08:06:01;30.73;;;28.83;;
16308;SDS011;8263;48.880;9.276;2022-10-16T08:08:29;32.63;;;30.52;;
16308;SDS011;8263;48.880;9.276;2022-10-16T08:10:55;31.50;;;29.60;;
16308;SDS011;8263;48.880;9.276;2022-10-16T08:13:22;33.65;;;31.50;;
16308;SDS011;8263;48.880;9.276;2022-10-16T08:15:49;30.02;;;28.15;;
16308;SDS011;8263;48.880;9.276;2022-10-16T08:18:17;30.63;;;28.73;;
16308;SDS011;8263;48.880;9.276;2022-10-16T08:20:44;31.85;;;29.90;;
16308;SDS011;8263;48.880;9.276;2022-10-16T08:23:10;32.00;;;30.02;;
16308;SDS011;8263;48.880;9.276;2022-10-16T08:25:37;30.88;;;28.98;;
16308;SDS011;8263;48.880;9.276;2022-10-16T08:28:04;31.13;;;28.73;;
16308;SDS011;8263;48.880;9.276;2022-10-16T08:30:31;32.47;;;30.48;;
16308;SDS011;8263;48.880;9.276;2022-10-16T08:32:57;32.08;;;30.08;;
16308;SDS011;8263;48.880;9.276;2022-10-16T08:35:26;32.50;;;30.42;;
16308;SDS011;8263;48.880;9.276;2022-10-16T08:37:52;32.67;;;30.65;;
16308;SDS011;8263;48.880;9.276;2022-10-16T08:40:20;29.25;;;27.45;;
16308;SDS011;8263;48.880;9.276;2022-10-16T08:42:51;32.45;;;30.45;;
16308;SDS011;8263;48.880;9.276;2022-10-16T08:45:27;32.22;;;30.23;;
16308;SDS011;8263;48.880;9.276;2022-10-16T08:48:06;31.83;;;29.88;;
16308;SDS011;8263;48.880;9.276;2022-10-16T08:50:36;31.08;;;29.15;;
16308;SDS011;8263;48.880;9.276;2022-10-16T08:53:03;31.60;;;29.63;;
16308;SDS011;8263;48.880;9.276;2022-10-16T08:55:31;31.70;;;29.77;;
16308;SDS011;8263;48.880;9.276;2022-10-16T08:58:00;32.28;;;30.25;;
16308;SDS011;8263;48.880;9.276;2022-10-16T09:00:27;30.73;;;28.83;;
16308;SDS011;8263;48.880;9.276;2022-10-16T09:02:56;31.25;;;29.35;;
16308;SDS011;8263;48.880;9.276;2022-10-16T09:08:19;31.65;;;29.65;;
16308;SDS011;8263;48.880;9.276;2022-10-16T09:10:50;30.60;;;28.63;;
16308;SDS011;8263;48.880;9.276;2022-10-16T09:13:20;30.02;;;28.23;;
16308;SDS011;8263;48.880;9.276;2022-10-16T09:15:48;29.25;;;27.45;;
16308;SDS011;8263;48.880;9.276;2022-10-16T09:18:18;31.92;;;29.90;;
16308;SDS011;8263;48.880;9.276;2022-10-16T09:20:49;30.92;;;28.88;;
16308;SDS011;8263;48.880;9.276;2022-10-16T09:23:18;30.38;;;28.48;;
16308;SDS011;8263;48.880;9.276;2022-10-16T09:25:46;30.45;;;28.60;;
16308;SDS011;8263;48.880;9.276;2022-10-16T09:28:14;30.42;;;28.52;;
16308;SDS011;8263;48.880;9.276;2022-10-16T09:30:41;29.05;;;27.25;;
16308;SDS011;8263;48.880;9.276;2022-10-16T09:33:07;31.35;;;29.42;;
16308;SDS011;8263;48.880;9.276;2022-10-16T09:35:36;29.73;;;27.92;;
16308;SDS011;8263;48.880;9.276;2022-10-16T09:38:06;28.00;;;26.30;;
16308;SDS011;8263;48.880;9.276;2022-10-16T09:40:35;30.00;;;28.17;;
16308;SDS011;8263;48.880;9.276;2022-10-16T09:43:03;29.63;;;27.83;;
16308;SDS011;8263;48.880;9.276;2022-10-16T09:45:34;28.90;;;27.10;;
16308;SDS011;8263;48.880;9.276;2022-10-16T09:48:01;28.10;;;26.40;;
16308;SDS011;8263;48.880;9.276;2022-10-16T09:50:35;28.75;;;26.95;;
16308;SDS011;8263;48.880;9.276;2022-10-16T09:53:03;28.67;;;26.88;;
16308;SDS011;8263;48.880;9.276;2022-10-16T09:55:29;29.33;;;27.52;;
16308;SDS011;8263;48.880;9.276;2022-10-16T09:58:00;28.63;;;26.83;;
16308;SDS011;8263;48.880;9.276;2022-10-16T10:00:26;27.67;;;25.98;;
16308;SDS011;8263;48.880;9.276;2022-10-16T10:02:55;28.63;;;26.88;;
16308;SDS011;8263;48.880;9.276;2022-10-16T10:05:23;26.65;;;25.05;;
16308;SDS011;8263;48.880;9.276;2022-10-16T10:07:55;27.02;;;25.33;;
16308;SDS011;8263;48.880;9.276;2022-10-16T10:10:23;27.92;;;26.23;;
16308;SDS011;8263;48.880;9.276;2022-10-16T10:12:50;27.08;;;25.38;;
16308;SDS011;8263;48.880;9.276;2022-10-16T10:15:18;26.70;;;25.00;;
16308;SDS011;8263;48.880;9.276;2022-10-16T10:17:47;28.77;;;26.98;;
16308;SDS011;8263;48.880;9.276;2022-10-16T10:20:18;27.58;;;25.88;;
16308;SDS011;8263;48.880;9.276;2022-10-16T10:22:47;26.38;;;24.67;;
16308;SDS011;8263;48.880;9.276;2022-10-16T10:25:26;26.23;;;24.58;;
16308;SDS011;8263;48.880;9.276;2022-10-16T10:30:47;25.85;;;24.25;;
16308;SDS011;8263;48.880;9.276;2022-10-16T10:33:18;28.00;;;26.30;;
16308;SDS011;8263;48.880;9.276;2022-10-16T10:35:49;26.02;;;24.42;;
16308;SDS011;8263;48.880;9.276;2022-10-16T10:38:20;24.67;;;23.17;;
16308;SDS011;8263;48.880;9.276;2022-10-16T10:40:50;26.23;;;24.63;;
16308;SDS011;8263;48.880;9.276;2022-10-16T10:43:20;23.65;;;22.25;;
16308;SDS011;8263;48.880;9.276;2022-10-16T10:45:52;25.38;;;23.77;;
16308;SDS011;8263;48.880;9.276;2022-10-16T10:48:31;24.98;;;23.45;;
16308;SDS011;8263;48.880;9.276;2022-10-16T10:51:01;24.35;;;22.85;;
16308;SDS011;8263;48.880;9.276;2022-10-16T10:53:36;24.73;;;23.23;;
16308;SDS011;8263;48.880;9.276;2022-10-16T10:56:09;24.67;;;23.10;;
16308;SDS011;8263;48.880;9.276;2022-10-16T11:01:29;23.95;;;22.45;;
16308;SDS011;8263;48.880;9.276;2022-10-16T11:04:00;23.08;;;21.67;;
16308;SDS011;8263;48.880;9.276;2022-10-16T11:06:30;23.83;;;22.38;;
16308;SDS011;8263;48.880;9.276;2022-10-16T11:08:59;21.27;;;19.98;;
16308;SDS011;8263;48.880;9.276;2022-10-16T11:11:29;19.80;;;18.60;;
16308;SDS011;8263;48.880;9.276;2022-10-16T11:13:58;21.27;;;19.98;;
16308;SDS011;8263;48.880;9.276;2022-10-16T11:16:28;21.33;;;20.00;;
16308;SDS011;8263;48.880;9.276;2022-10-16T11:18:58;20.40;;;19.13;;
16308;SDS011;8263;48.880;9.276;2022-10-16T11:21:25;21.55;;;19.77;;
16308;SDS011;8263;48.880;9.276;2022-10-16T11:23:53;20.40;;;19.20;;
16308;SDS011;8263;48.880;9.276;2022-10-16T11:26:24;19.30;;;18.10;;
16308;SDS011;8263;48.880;9.276;2022-10-16T11:28:51;20.63;;;19.38;;
16308;SDS011;8263;48.880;9.276;2022-10-16T11:31:22;20.38;;;19.08;;
16308;SDS011;8263;48.880;9.276;2022-10-16T11:33:53;18.48;;;17.27;;
16308;SDS011;8263;48.880;9.276;2022-10-16T11:36:25;18.23;;;17.13;;
16308;SDS011;8263;48.880;9.276;2022-10-16T11:38:52;18.25;;;17.15;;
16308;SDS011;8263;48.880;9.276;2022-10-16T11:41:24;19.67;;;18.48;;
16308;SDS011;8263;48.880;9.276;2022-10-16T11:43:55;17.50;;;16.40;;
16308;SDS011;8263;48.880;9.276;2022-10-16T11:46:24;18.08;;;16.98;;
16308;SDS011;8263;48.880;9.276;2022-10-16T11:48:57;17.02;;;16.02;;
16308;SDS011;8263;48.880;9.276;2022-10-16T11:51:29;17.23;;;16.17;;
16308;SDS011;8263;48.880;9.276;2022-10-16T11:53:59;18.75;;;17.60;;
16308;SDS011;8263;48.880;9.276;2022-10-16T11:56:28;16.65;;;15.65;;
16308;SDS011;8263;48.880;9.276;2022-10-16T11:58:56;16.20;;;15.20;;
16308;SDS011;8263;48.880;9.276;2022-10-16T12:01:26;16.15;;;15.15;;
16308;SDS011;8263;48.880;9.276;2022-10-16T12:04:05;17.60;;;16.42;;
16308;SDS011;8263;48.880;9.276;2022-10-16T12:06:34;17.05;;;15.95;;
16308;SDS011;8263;48.880;9.276;2022-10-16T12:09:02;16.25;;;15.25;;
16308;SDS011;8263;48.880;9.276;2022-10-16T12:11:34;14.95;;;13.98;;
16308;SDS011;8263;48.880;9.276;2022-10-16T12:14:06;15.30;;;14.30;;
16308;SDS011;8263;48.880;9.276;2022-10-16T12:16:33;16.73;;;15.27;;
16308;SDS011;8263;48.880;9.276;2022-10-16T12:19:03;14.30;;;13.40;;
16308;SDS011;8263;48.880;9.276;2022-10-16T12:21:37;14.88;;;13.98;;
16308;SDS011;8263;48.880;9.276;2022-10-16T12:24:05;15.73;;;14.75;;
16308;SDS011;8263;48.880;9.276;2022-10-16T12:26:32;14.40;;;13.50;;
16308;SDS011;8263;48.880;9.276;2022-10-16T12:29:09;15.30;;;14.35;;
16308;SDS011;8263;48.880;9.276;2022-10-16T12:31:37;14.60;;;13.70;;
16308;SDS011;8263;48.880;9.276;2022-10-16T12:34:14;13.18;;;12.38;;
16308;SDS011;8263;48.880;9.276;2022-10-16T12:36:45;14.50;;;13.60;;
16308;SDS011;8263;48.880;9.276;2022-10-16T12:39:16;14.93;;;14.02;;
16308;SDS011;8263;48.880;9.276;2022-10-16T12:41:46;14.20;;;13.32;;
16308;SDS011;8263;48.880;9.276;2022-10-16T12:44:20;13.30;;;12.50;;
16308;SDS011;8263;48.880;9.276;2022-10-16T12:46:47;14.02;;;13.13;;
16308;SDS011;8263;48.880;9.276;2022-10-16T12:49:22;14.02;;;13.13;;
16308;SDS011;8263;48.880;9.276;2022-10-16T12:51:52;14.30;;;13.40;;
16308;SDS011;8263;48.880;9.276;2022-10-16T12:54:19;13.18;;;12.38;;
16308;SDS011;8263;48.880;9.276;2022-10-16T12:56:50;12.07;;;11.38;;
16308;SDS011;8263;48.880;9.276;2022-10-16T12:59:26;12.43;;;11.68;;
16308;SDS011;8263;48.880;9.276;2022-10-16T13:02:08;11.75;;;11.05;;
16308;SDS011;8263;48.880;9.276;2022-10-16T13:07:33;13.15;;;12.30;;
16308;SDS011;8263;48.880;9.276;2022-10-16T13:10:06;13.60;;;12.77;;
16308;SDS011;8263;48.880;9.276;2022-10-16T13:12:44;12.95;;;12.15;;
16308;SDS011;8263;48.880;9.276;2022-10-16T13:15:19;12.43;;;11.70;;
16308;SDS011;8263;48.880;9.276;2022-10-16T13:17:52;13.30;;;12.50;;
16308;SDS011;8263;48.880;9.276;2022-10-16T13:20:25;12.35;;;11.65;;
16308;SDS011;8263;48.880;9.276;2022-10-16T13:22:56;11.52;;;10.82;;
16308;SDS011;8263;48.880;9.276;2022-10-16T13:25:26;12.07;;;11.38;;
16308;SDS011;8263;48.880;9.276;2022-10-16T13:27:56;11.85;;;11.13;;
16308;SDS011;8263;48.880;9.276;2022-10-16T13:30:25;12.32;;;11.63;;
16308;SDS011;8263;48.880;9.276;2022-10-16T13:32:54;11.15;;;10.48;;
16308;SDS011;8263;48.880;9.276;2022-10-16T13:35:25;11.35;;;10.65;;
16308;SDS011;8263;48.880;9.276;2022-10-16T13:38:04;11.60;;;10.90;;
16308;SDS011;8263;48.880;9.276;2022-10-16T13:40:31;12.60;;;11.80;;
16308;SDS011;8263;48.880;9.276;2022-10-16T13:42:59;11.20;;;10.50;;
16308;SDS011;8263;48.880;9.276;2022-10-16T13:45:26;11.75;;;11.05;;
16308;SDS011;8263;48.880;9.276;2022-10-16T13:48:01;13.02;;;12.15;;
16308;SDS011;8263;48.880;9.276;2022-10-16T13:50:29;11.88;;;11.18;;
16308;SDS011;8263;48.880;9.276;2022-10-16T13:53:04;11.23;;;10.55;;
16308;SDS011;8263;48.880;9.276;2022-10-16T13:55:31;12.40;;;11.60;;
16308;SDS011;8263;48.880;9.276;2022-10-16T13:58:04;9.85;;;9.25;;
16308;SDS011;8263;48.880;9.276;2022-10-16T14:00:30;11.30;;;10.60;;
16308;SDS011;8263;48.880;9.276;2022-10-16T14:02:58;11.60;;;10.90;;
16308;SDS011;8263;48.880;9.276;2022-10-16T14:05:25;9.88;;;9.27;;
16308;SDS011;8263;48.880;9.276;2022-10-16T14:07:52;10.48;;;9.77;;
16308;SDS011;8263;48.880;9.276;2022-10-16T14:10:22;10.57;;;9.98;;
16308;SDS011;8263;48.880;9.276;2022-10-16T14:12:54;10.70;;;10.05;;
16308;SDS011;8263;48.880;9.276;2022-10-16T14:15:20;10.23;;;9.63;;
16308;SDS011;8263;48.880;9.276;2022-10-16T14:17:49;10.75;;;10.10;;
16308;SDS011;8263;48.880;9.276;2022-10-16T14:20:16;10.02;;;9.43;;
16308;SDS011;8263;48.880;9.276;2022-10-16T14:22:43;11.48;;;10.77;;
16308;SDS011;8263;48.880;9.276;2022-10-16T14:25:19;11.32;;;10.50;;
16308;SDS011;8263;48.880;9.276;2022-10-16T14:27:57;9.98;;;9.35;;
16308;SDS011;8263;48.880;9.276;2022-10-16T14:30:27;10.15;;;9.55;;
16308;SDS011;8263;48.880;9.276;2022-10-16T14:32:54;10.63;;;9.93;;
16308;SDS011;8263;48.880;9.276;2022-10-16T14:35:22;10.52;;;9.93;;
16308;SDS011;8263;48.880;9.276;2022-10-16T14:37:51;11.10;;;10.40;;
16308;SDS011;8263;48.880;9.276;2022-10-16T14:40:18;11.10;;;10.38;;
16308;SDS011;8263;48.880;9.276;2022-10-16T14:42:45;11.43;;;10.68;;
16308;SDS011;8263;48.880;9.276;2022-10-16T14:45:17;10.93;;;10.23;;
16308;SDS011;8263;48.880;9.276;2022-10-16T14:47:47;11.25;;;10.55;;
16308;SDS011;8263;48.880;9.276;2022-10-16T14:50:14;11.45;;;10.75;;
16308;SDS011;8263;48.880;9.276;2022-10-16T14:52:40;11.90;;;11.10;;
16308;SDS011;8263;48.880;9.276;2022-10-16T14:55:08;11.50;;;10.77;;
16308;SDS011;8263;48.880;9.276;2022-10-16T14:57:35;11.32;;;10.63;;